Flight Track Log - Related Links

Times and Time Zones

All times are in EDT time to prevent confusion due to time zone crossing. See the BJS542 flight status page for this flight to view local times or setup timezone preferences in your user account.

Time Position Orientation Groundspeed Altitude Reporting Facility
EDT Latitude Longitude Course Direction KTS MPH feet Rate Location/Type
Mon 09:21:33 PM 41.0500 -73.7000 53° Northeast 170 196 1,400  Level New York TRACON
Mon 09:22:33 PM 41.0500 -73.7500 270° West 199 229 2,100 1,450 Climbing New York TRACON
Mon 09:23:33 PM 41.1000 -73.7500 360° North 234 269 4,300 2,706 Climbing New York TRACON
Mon 09:25:06 PM 41.1625 -73.6367 54° Northeast 287 330 9,000 2,623 Climbing Boston Center
Mon 09:26:04 PM 41.2092 -73.5328 59° Northeast 287 330 10,900 1,587 Climbing Boston Center
Mon 09:27:00 PM 41.2940 -73.2775 53° Northeast  Level FlightAware Approximate
Mon 09:27:07 PM 41.2561 -73.4231 60° Northeast 346 398 12,200  Level Boston Center
Mon 09:28:16 PM 41.3325 -73.2583 58° Northeast 393 452 14,100 1,628 Climbing Boston Center
Mon 09:29:16 PM 41.3875 -73.1292 60° Northeast 400 460 15,700 1,350 Climbing Boston Center
Mon 09:30:16 PM 41.4403 -73.0106 59° Northeast 400 460 16,800 650 Climbing Boston Center
Mon 09:31:16 PM 41.5056 -72.8642 59° Northeast 406 467 17,000 99 Climbing Boston Center
Mon 09:32:17 PM 41.5600 -72.7397 60° Northeast 423 487 17,000  Level Boston Center
Mon 09:33:17 PM 41.6292 -72.5900 58° Northeast 423 487 17,000  Level Boston Center
Mon 09:34:18 PM 41.6836 -72.4678 59° Northeast 423 487 17,000  Level Boston Center
Mon 09:35:18 PM 41.7481 -72.3233 59° Northeast 418 481 17,000  Level Boston Center
Mon 09:36:16 PM 41.7978 -72.2144 58° Northeast 426 490 17,000  Level Boston Center
Mon 09:37:16 PM 41.8683 -72.0581 59° Northeast 413 475 17,000  Level Boston Center
Mon 09:38:16 PM 41.9219 -71.9378 59° Northeast 413 475 17,000  Level Boston Center
Mon 09:39:17 PM 41.9881 -71.7894 59° Northeast 413 475 17,000  Level Boston Center
Mon 09:40:17 PM 42.0433 -71.6686 58° Northeast 413 475 17,000  Level Boston Center
Mon 09:41:16 PM 42.1008 -71.5364 60° Northeast 413 475 17,000  Level Boston Center
Mon 09:42:16 PM 42.1683 -71.3869 59° Northeast 413 475 17,000  Level Boston Center
Mon 09:43:17 PM 42.2233 -71.2597 60° Northeast 418 481 17,000  Level Boston Center
Mon 09:44:18 PM 42.2906 -71.1069 59° Northeast 424 488 17,000  Level Boston Center
Mon 09:45:16 PM 42.3533 -70.9681 59° Northeast 424 488 17,000  Level Boston Center
Mon 09:46:18 PM 42.4139 -70.8314 59° Northeast 423 487 17,000  Level Boston Center
Mon 09:47:17 PM 42.4939 -70.7394 40° Northeast 411 473 17,000  Level Boston Center
Mon 09:48:16 PM 42.6139 -70.6797 20° North 401 461 17,000  Level Boston Center
Mon 09:49:16 PM 42.7192 -70.6172 24° Northeast 411 473 17,000  Level Boston Center
Mon 09:50:16 PM 42.8244 -70.5492 25° Northeast 417 480 17,000 -298 Level Boston Center
Mon 09:51:17 PM 42.9297 -70.4833 25° Northeast 417 480 16,400 -1,500 Descending Boston Center
Mon 09:52:16 PM 43.0306 -70.4178 25° Northeast 407 468 14,000 -2,132 Descending Boston Center
Mon 09:53:18 PM 43.1128 -70.3525 30° Northeast 382 440 12,100 -1,850 Descending Boston Center
Mon 09:54:16 PM 43.2153 -70.3689 353° North 347 399 10,300 -1,613 Descending Boston Center
Mon 09:55:17 PM 43.2906 -70.3919 347° North 313 360 8,900 -1,623 Descending Boston Center
Mon 09:56:18 PM 43.3744 -70.4178 347° North 287 330 7,000 -1,815 Descending Boston Center
Mon 09:57:16 PM 43.4394 -70.4414 345° North 280 322 5,300 -1,008 Descending Boston Center
Mon 09:58:17 PM 43.5192 -70.4644 348° North 269 310 5,000 -443 Descending Boston Center
Mon 09:59:18 PM 43.5819 -70.4797 350° North 256 295 4,400 -1,109 Descending Boston Center
Mon 10:00:16 PM 43.6442 -70.4633 11° North 224 258 2,800 -1,525 Descending Boston Center
Mon 10:01:16 PM 43.6517 -70.4086 79° East 151 174 1,400 -1,190 Descending Boston Center
Mon 10:02:17 PM 43.6483 -70.3456 94° East 136 157 400 -590 Descending Boston Center
Mon 10:03:18 PM 43.6494 -70.2908 88° East 141 162 200 5,345 Descending Boston Center
Mon 10:04:16 PM 43.6483 -70.2336 92° East 141 162 11,000 5,492 Climbing Boston Center
Mon 10:05:16 PM 43.6472 -70.1761 92° East 141 162 11,000  Level Boston Center
Mon 10:06:16 PM 43.6461 -70.1189 92° East 141 162 11,000  Level Boston Center
Mon 10:08:00 PM 43.6456 -70.3086 270° West  Level Estimated
Mon 10:15:00 PM 43.6456 -70.3086 37° Northeast  Level Estimated
Mon 10:16:00 PM 43.6456 -70.3086 37° Northeast  Level Estimated
Mon 10:17:00 PM 43.6456 -70.3086 37° Northeast  Level Estimated

Login

Don't have an account? Register now (free) for customized features, flight alerts, and more!